Time;durP1;ratioP1;P1;durP2;ratioP2;P2;SDS_P1;SDS_P2;PMS_P1;PMS_P2;Temp;Humidity;BMP_temperature;BMP_pressure;BME280_temperature;BME280_humidity;BME280_pressure;Samples;Min_cycle;Max_cycle;Signal;HPM_P1;HPM_P2
2022/01/16 00:04:28;;;;;;;83.07;39.30;;;;;;;1.13;100.00;102303.75;10466718;28;20083;-56
2022/01/16 00:09:31;;;;;;;118.45;45.97;;;;;;;1.01;100.00;102314.84;10462347;28;20489;-58
2022/01/16 00:14:34;;;;;;;107.75;46.70;;;;;;;0.99;100.00;102315.66;10461908;28;20053;-52
2022/01/16 00:19:36;;;;;;;133.98;49.67;;;;;;;0.95;100.00;102321.66;10463233;28;20049;-55
2022/01/16 00:24:39;;;;;;;126.22;49.55;;;;;;;0.75;100.00;102314.63;10461810;28;20056;-51
2022/01/16 00:29:41;;;;;;;142.65;51.60;;;;;;;1.06;100.00;102302.84;10461866;28;20052;-52
2022/01/16 00:34:47;;;;;;;80.57;42.40;;;;;;;1.30;100.00;102298.66;10461409;28;20507;-55
2022/01/16 00:39:50;;;;;;;102.45;47.97;;;;;;;1.18;100.00;102321.78;10461115;28;20427;-54
2022/01/16 00:44:52;;;;;;;87.80;42.85;;;;;;;1.28;100.00;102323.59;10460919;28;20044;-53
2022/01/16 00:49:54;;;;;;;108.90;46.95;;;;;;;0.88;100.00;102318.19;10461255;28;20049;-54
2022/01/16 00:55:02;;;;;;;80.97;41.13;;;;;;;1.22;100.00;102332.16;10461495;28;20060;-56
2022/01/16 01:00:06;;;;;;;160.80;59.28;;;;;;;0.69;100.00;102281.94;10460771;28;20405;-57
2022/01/16 01:05:09;;;;;;;153.18;53.38;;;;;;;0.93;100.00;102275.25;10460239;28;20040;-56
2022/01/16 01:10:11;;;;;;;108.00;46.67;;;;;;;0.81;100.00;102267.41;10459925;28;20053;-52
2022/01/16 01:15:14;;;;;;;149.25;55.35;;;;;;;0.84;100.00;102277.75;10459730;28;20057;-55
2022/01/16 01:20:18;;;;;;;100.70;43.35;;;;;;;1.11;100.00;102271.91;10459292;28;20507;-55
2022/01/16 01:25:22;;;;;;;99.40;40.85;;;;;;;0.88;100.00;102264.03;10459333;28;20049;-55
2022/01/16 01:30:24;;;;;;;91.25;43.53;;;;;;;0.81;100.00;102288.91;10459089;28;20478;-57
2022/01/16 01:35:28;;;;;;;97.25;42.90;;;;;;;1.10;100.00;102286.50;10460086;28;20053;-55
2022/01/16 01:40:30;;;;;;;110.15;47.83;;;;;;;1.03;100.00;102215.13;10459567;28;20045;-53
2022/01/16 01:51:07;;;;;;;125.68;48.08;;;;;;;1.25;100.00;102207.47;10457679;28;20041;-57
2022/01/16 01:56:12;;;;;;;94.22;41.50;;;;;;;1.15;100.00;102244.41;10458179;28;20106;-52
2022/01/16 02:01:14;;;;;;;103.82;44.80;;;;;;;1.00;100.00;102253.78;10458256;28;20060;-57
2022/01/16 02:06:24;;;;;;;122.07;48.17;;;;;;;1.17;100.00;102259.03;10457956;28;20072;-57
2022/01/16 02:11:28;;;;;;;100.05;44.88;;;;;;;0.94;100.00;102274.38;10458856;28;20053;-54
2022/01/16 02:33:10;;;;;;;81.68;40.38;;;;;;;0.99;100.00;102307.94;10457257;28;20049;-56
2022/01/16 02:38:10;;;;;;;120.65;48.10;;;;;;;0.91;100.00;102285.53;10456843;28;20485;-56
2022/01/16 02:43:15;;;;;;;106.13;44.72;;;;;;;0.68;100.00;102284.50;10455160;28;20416;-57
2022/01/16 02:48:17;;;;;;;116.93;50.70;;;;;;;0.91;100.00;102290.69;10457552;28;20049;-56
2022/01/16 02:53:20;;;;;;;100.72;41.75;;;;;;;1.05;100.00;102266.72;10457296;28;20061;-52
2022/01/16 02:58:22;;;;;;;158.35;55.97;;;;;;;0.81;100.00;102265.72;10456326;28;20065;-52
2022/01/16 03:03:26;;;;;;;106.30;44.53;;;;;;;1.01;100.00;102250.34;10456243;28;20045;-54
2022/01/16 03:08:28;;;;;;;85.18;41.58;;;;;;;0.83;100.00;102248.53;10456343;28;20057;-54
2022/01/16 03:13:32;;;;;;;86.68;41.10;;;;;;;0.77;100.00;102242.47;10456603;28;20053;-56
2022/01/16 03:23:55;;;;;;;124.72;53.22;;;;;;;0.58;100.00;102229.44;10455834;28;20072;-53
2022/01/16 03:28:58;;;;;;;98.70;46.20;;;;;;;0.77;100.00;102216.69;10456473;28;20056;-55
2022/01/16 03:34:00;;;;;;;115.57;47.78;;;;;;;1.01;100.00;102214.25;10456776;28;20053;-58
2022/01/16 03:39:03;;;;;;;117.15;51.13;;;;;;;1.06;100.00;102199.66;10455762;28;20056;-54
2022/01/16 03:44:07;;;;;;;105.97;47.38;;;;;;;1.02;100.00;102212.53;10463256;28;20052;-54
2022/01/16 03:49:19;;;;;;;93.80;41.95;;;;;;;1.08;100.00;102213.41;10463572;28;20406;-53
2022/01/16 03:54:24;;;;;;;112.00;48.75;;;;;;;0.81;100.00;102214.13;10462958;28;20044;-55
2022/01/16 03:59:27;;;;;;;111.63;47.53;;;;;;;0.96;100.00;102213.38;10463097;28;20059;-55
2022/01/16 04:04:29;;;;;;;87.38;40.20;;;;;;;1.24;100.00;102203.16;10462267;28;20061;-54
2022/01/16 04:09:31;;;;;;;111.25;46.28;;;;;;;1.06;100.00;102198.78;10461978;28;20382;-55
2022/01/16 04:19:50;;;;;;;116.53;49.67;;;;;;;1.03;100.00;102193.63;10462047;28;20049;-54
2022/01/16 04:24:52;;;;;;;113.90;49.45;;;;;;;1.05;100.00;102176.44;10462233;28;20053;-55
2022/01/16 04:29:54;;;;;;;135.13;56.97;;;;;;;1.01;100.00;102187.56;10461674;28;20055;-55
2022/01/16 04:34:57;;;;;;;110.35;52.22;;;;;;;0.96;100.00;102205.63;10461492;28;20049;-52
2022/01/16 04:40:01;;;;;;;108.43;48.47;;;;;;;1.16;100.00;102186.78;10461132;28;20049;-54
2022/01/16 04:45:04;;;;;;;147.27;60.67;;;;;;;0.96;100.00;102189.25;10461084;28;20045;-56
2022/01/16 04:50:08;;;;;;;127.40;55.53;;;;;;;1.01;100.00;102195.31;10460422;28;20056;-56
2022/01/16 04:55:11;;;;;;;136.27;57.75;;;;;;;1.28;100.00;102195.44;10460638;28;20049;-55
2022/01/16 05:00:16;;;;;;;147.35;58.15;;;;;;;1.19;100.00;102195.38;10460500;28;20060;-55
2022/01/16 05:05:19;;;;;;;140.07;57.38;;;;;;;1.10;100.00;102191.06;10460322;28;20047;-54
2022/01/16 05:10:21;;;;;;;120.65;52.17;;;;;;;1.33;100.00;102161.03;10459903;28;20513;-57
2022/01/16 05:20:44;;;;;;;135.70;55.45;;;;;;;1.08;100.00;102155.81;10460610;28;20051;-55
2022/01/16 05:25:47;;;;;;;134.70;56.05;;;;;;;1.07;100.00;102160.09;10460283;28;20488;-57
2022/01/16 05:30:49;;;;;;;133.73;57.42;;;;;;;1.07;100.00;102152.34;10459554;28;20071;-55
2022/01/16 05:35:52;;;;;;;119.47;53.85;;;;;;;1.13;100.00;102156.69;10459330;28;20060;-53
2022/01/16 05:40:54;;;;;;;129.68;55.22;;;;;;;1.20;100.00;102145.53;10458878;28;20060;-53
2022/01/16 05:45:56;;;;;;;110.35;52.45;;;;;;;1.37;100.00;102149.88;10458461;28;20128;-55
2022/01/16 05:50:59;;;;;;;123.63;55.42;;;;;;;1.09;100.00;102157.50;10458517;28;20076;-55
2022/01/16 05:56:01;;;;;;;146.73;65.63;;;;;;;0.90;100.00;102160.03;10458718;28;20071;-54
2022/01/16 06:01:03;;;;;;;136.02;59.78;;;;;;;1.06;100.00;102155.81;10458839;28;20135;-57
2022/01/16 06:06:06;;;;;;;132.18;59.08;;;;;;;1.03;100.00;102140.31;10457950;28;20049;-55
2022/01/16 06:11:08;;;;;;;137.27;60.78;;;;;;;1.11;100.00;102141.19;10458056;28;20052;-57
2022/01/16 06:16:11;;;;;;;147.02;67.57;;;;;;;1.09;100.00;102157.50;10457514;28;20053;-57
2022/01/16 06:21:13;;;;;;;160.50;67.93;;;;;;;1.08;100.00;102151.50;10457176;28;20051;-56
2022/01/16 06:26:15;;;;;;;122.60;61.65;;;;;;;1.26;100.00;102149.84;10457240;28;20059;-54
2022/01/16 06:31:18;;;;;;;132.25;65.82;;;;;;;1.18;100.00;102161.84;10457101;28;20045;-54
2022/01/16 06:36:20;;;;;;;130.50;63.13;;;;;;;1.20;100.00;102167.88;10456845;28;20481;-57
2022/01/16 06:41:23;;;;;;;143.23;66.50;;;;;;;1.30;100.00;102169.66;10457496;28;20053;-51
2022/01/16 06:46:25;;;;;;;144.90;68.78;;;;;;;1.34;100.00;102180.84;10456465;28;20405;-55
2022/01/16 06:51:28;;;;;;;137.48;64.85;;;;;;;1.34;100.00;102184.25;10456355;28;20075;-53
2022/01/16 06:56:30;;;;;;;143.43;73.45;;;;;;;1.38;100.00;102177.38;10457126;28;20057;-56
2022/01/16 07:01:32;;;;;;;122.38;63.70;;;;;;;1.49;100.00;102194.63;10456166;28;20057;-50
2022/01/16 07:06:35;;;;;;;126.03;65.60;;;;;;;1.57;100.00;102194.66;10456751;28;20056;-55
2022/01/16 07:11:38;;;;;;;141.85;69.75;;;;;;;1.55;100.00;102195.53;10455420;28;20067;-56
2022/01/16 07:16:40;;;;;;;111.00;58.17;;;;;;;1.54;100.00;102209.28;10462973;28;20057;-57
2022/01/16 07:21:42;;;;;;;117.60;61.10;;;;;;;1.61;100.00;102221.34;10464453;28;20064;-55
2022/01/16 07:26:45;;;;;;;104.15;57.17;;;;;;;1.65;100.00;102229.09;10464193;28;20056;-54
2022/01/16 07:31:48;;;;;;;129.20;67.68;;;;;;;1.68;100.00;102233.41;10464003;28;20049;-52
2022/01/16 07:36:50;;;;;;;106.28;57.75;;;;;;;1.73;100.00;102225.69;10463894;28;20060;-52
2022/01/16 07:41:52;;;;;;;121.53;65.65;;;;;;;1.77;100.00;102243.78;10463382;28;20053;-55
2022/01/16 07:46:54;;;;;;;108.35;57.53;;;;;;;1.78;100.00;102263.59;10463366;28;20044;-55
2022/01/16 07:51:57;;;;;;;113.93;61.13;;;;;;;1.84;100.00;102255.84;10463142;28;20071;-56
2022/01/16 07:56:59;;;;;;;101.72;57.58;;;;;;;1.93;100.00;102261.88;10464202;28;20060;-56
2022/01/16 08:02:02;;;;;;;92.40;52.25;;;;;;;2.00;100.00;102286.84;10462826;28;20054;-54
2022/01/16 08:07:07;;;;;;;95.80;56.55;;;;;;;2.01;100.00;102278.25;10462444;28;20049;-53
2022/01/16 08:12:09;;;;;;;95.88;54.42;;;;;;;2.14;100.00;102276.56;10462436;28;20052;-58
2022/01/16 08:17:12;;;;;;;101.55;56.13;;;;;;;2.13;100.00;102257.59;10462167;28;20055;-55
2022/01/16 08:22:14;;;;;;;71.63;44.30;;;;;;;2.22;100.00;102265.38;10462453;28;20056;-56
2022/01/16 08:27:16;;;;;;;85.28;50.03;;;;;;;2.33;100.00;102267.09;10460894;28;20052;-53
2022/01/16 08:32:19;;;;;;;68.43;41.75;;;;;;;2.42;100.00;102267.97;10462767;28;20049;-56
2022/01/16 08:37:21;;;;;;;71.72;43.83;;;;;;;2.47;100.00;102259.34;10461543;28;20044;-56
2022/01/16 08:42:23;;;;;;;78.32;44.75;;;;;;;2.54;100.00;102258.47;10461278;28;20045;-57
2022/01/16 08:47:26;;;;;;;74.75;45.70;;;;;;;2.67;100.00;102267.94;10459933;28;20049;-55
2022/01/16 08:52:29;;;;;;;72.45;44.55;;;;;;;2.69;100.00;102283.47;10460722;28;20519;-54
2022/01/16 08:57:31;;;;;;;61.80;39.70;;;;;;;2.78;100.00;102280.88;10460486;28;20049;-56
2022/01/16 09:02:34;;;;;;;69.93;42.47;;;;;;;2.81;100.00;102296.41;10459911;28;20413;-56
2022/01/16 09:07:37;;;;;;;68.68;42.10;;;;;;;2.93;100.00;102291.19;10460596;28;20103;-56
2022/01/16 09:12:39;;;;;;;70.25;42.88;;;;;;;2.94;100.00;102289.47;10453869;28;20060;-59
2022/01/16 09:17:42;;;;;;;65.18;39.72;;;;;;;3.02;100.00;102298.09;10418968;28;20052;-63
2022/01/16 09:22:45;;;;;;;66.15;40.67;;;;;;;3.12;100.00;102304.94;10417217;28;20073;-56
2022/01/16 09:27:49;;;;;;;68.90;41.50;;;;;;;3.20;100.00;102302.38;10418291;28;20054;-54
2022/01/16 09:32:51;;;;;;;68.70;42.83;;;;;;;3.29;100.00;102301.47;10417818;28;20045;-58
2022/01/16 09:37:54;;;;;;;71.72;43.83;;;;;;;3.33;100.00;102310.97;10417311;28;20476;-57
2022/01/16 09:42:57;;;;;;;64.65;36.55;;;;;;;3.56;100.00;102316.03;10417264;28;20375;-58
2022/01/16 09:48:02;;;;;;;69.38;40.28;;;;;;;3.64;100.00;102332.41;10416084;28;20394;-59
2022/01/16 09:53:05;;;;;;;67.53;38.63;;;;;;;3.69;100.00;102332.41;10416567;28;20049;-56
2022/01/16 09:58:07;;;;;;;65.18;38.78;;;;;;;3.85;100.00;102340.97;10417116;28;20496;-58
2022/01/16 10:03:11;;;;;;;72.45;38.40;;;;;;;3.84;100.00;102340.13;10416353;28;20046;-59
2022/01/16 10:08:26;;;;;;;67.93;39.90;;;;;;;3.88;100.00;102340.94;10415265;28;20485;-57
2022/01/16 10:13:36;;;;;;;73.50;38.85;;;;;;;4.02;100.00;102353.88;10421242;28;20509;-56
2022/01/16 10:18:40;;;;;;;67.70;39.13;;;;;;;4.07;100.00;102360.75;10456931;28;20051;-59
2022/01/16 10:23:44;;;;;;;73.63;41.33;;;;;;;4.08;100.00;102364.19;10457350;28;20053;-57
2022/01/16 10:28:46;;;;;;;71.03;39.55;;;;;;;4.09;100.00;102377.13;10458158;28;20136;-58
2022/01/16 10:33:49;;;;;;;78.00;44.00;;;;;;;4.09;100.00;102382.31;10420481;28;20053;-59
2022/01/16 10:39:07;;;;;;;81.40;46.67;;;;;;;4.07;100.00;102386.66;10410886;28;20053;-57
2022/01/16 10:44:30;;;;;;;87.65;48.38;;;;;;;4.13;100.00;102390.94;10455242;28;20134;-58
2022/01/16 10:49:32;;;;;;;88.30;50.55;;;;;;;4.12;100.00;102383.16;10455294;28;20049;-58
2022/01/16 10:54:37;;;;;;;94.88;50.17;;;;;;;4.15;100.00;102390.94;10456511;28;20056;-57
2022/01/16 10:59:39;;;;;;;92.80;46.92;;;;;;;4.21;100.00;102375.34;10456164;28;20053;-58
2022/01/16 11:04:42;;;;;;;95.93;50.03;;;;;;;4.17;100.00;102387.47;10456155;28;20056;-59
2022/01/16 11:09:44;;;;;;;106.65;54.35;;;;;;;4.07;100.00;102385.81;10456658;28;20610;-56
2022/01/16 11:14:47;;;;;;;101.40;52.50;;;;;;;4.18;100.00;102389.19;10457333;28;20053;-56
2022/01/16 11:19:52;;;;;;;113.15;54.13;;;;;;;4.16;100.00;102397.84;10456447;28;20075;-58
2022/01/16 11:25:10;;;;;;;94.60;47.08;;;;;;;4.17;100.00;102387.47;10456516;28;20052;-57
2022/01/16 11:30:14;;;;;;;115.75;54.65;;;;;;;4.05;100.00;102388.41;10455226;28;20052;-56
2022/01/16 11:35:18;;;;;;;111.72;51.40;;;;;;;4.08;100.00;102406.53;10453057;28;20052;-57
2022/01/16 11:40:27;;;;;;;114.40;52.58;;;;;;;4.14;100.00;102399.59;10452555;28;20041;-57
2022/01/16 11:45:30;;;;;;;105.10;50.92;;;;;;;4.19;100.00;102396.09;10455565;28;20048;-57
2022/01/16 11:50:36;;;;;;;118.53;56.70;;;;;;;4.07;100.00;102397.03;10456983;28;20053;-57
2022/01/16 11:55:39;;;;;;;121.72;54.88;;;;;;;4.12;100.00;102398.72;10455794;28;20416;-59
2022/01/16 12:00:44;;;;;;;121.40;52.13;;;;;;;4.19;100.00;102388.31;10456392;28;20063;-56
2022/01/16 12:05:47;;;;;;;104.07;47.92;;;;;;;4.22;100.00;102392.63;10461764;28;20053;-59
2022/01/16 12:10:55;;;;;;;125.00;55.95;;;;;;;4.23;100.00;102395.19;10462898;28;20055;-56
2022/01/16 12:16:32;;;;;;;114.90;52.88;;;;;;;4.14;100.00;102397.00;10462266;28;20417;-59
2022/01/16 12:21:35;;;;;;;119.13;53.58;;;;;;;4.19;100.00;102400.44;10462643;28;20103;-54
2022/01/16 12:26:37;;;;;;;126.70;54.00;;;;;;;4.23;100.00;102402.97;10462436;28;20041;-58
2022/01/16 12:31:39;;;;;;;112.47;51.55;;;;;;;4.28;100.00;102398.63;10462548;28;20059;-57
2022/01/16 12:36:41;;;;;;;118.53;51.53;;;;;;;4.34;100.00;102397.75;10461445;28;20489;-56
2022/01/16 12:41:46;;;;;;;107.50;51.50;;;;;;;4.53;100.00;102405.44;10461072;28;20049;-59
2022/01/16 12:46:54;;;;;;;98.55;48.03;;;;;;;4.70;100.00;102385.41;10460483;28;20076;-57
2022/01/16 12:51:57;;;;;;;124.68;54.22;;;;;;;4.75;100.00;102383.63;10460673;28;20071;-57
2022/01/16 12:57:01;;;;;;;105.22;48.15;;;;;;;4.84;100.00;102386.16;10460628;28;20401;-54
2022/01/16 13:02:20;;;;;;;121.03;52.58;;;;;;;4.71;100.00;102388.84;10459762;28;20053;-58
2022/01/16 13:07:22;;;;;;;120.88;51.40;;;;;;;4.81;100.00;102372.38;10460898;28;20489;-57
2022/01/16 13:12:25;;;;;;;100.55;45.72;;;;;;;4.76;100.00;102385.38;10459776;28;20049;-55
2022/01/16 13:17:33;;;;;;;115.53;49.67;;;;;;;4.77;100.00;102383.63;10459670;28;20507;-56
2022/01/16 13:22:37;;;;;;;103.18;48.63;;;;;;;4.80;100.00;102371.47;10460554;28;20079;-55
2022/01/16 13:27:42;;;;;;;94.18;44.45;;;;;;;4.94;100.00;102373.97;10459473;28;20079;-55
2022/01/16 13:32:45;;;;;;;108.20;49.78;;;;;;;4.90;100.00;102376.63;10459467;28;20137;-57
2022/01/16 13:37:49;;;;;;;108.75;50.50;;;;;;;4.87;100.00;102376.63;10459171;28;20124;-59
2022/01/16 13:48:17;;;;;;;92.10;44.67;;;;;;;4.65;100.00;102380.25;10459922;28;20044;-57
2022/01/16 13:53:38;;;;;;;102.20;48.47;;;;;;;4.81;100.00;102380.16;10458801;28;20049;-57
2022/01/16 13:58:54;;;;;;;98.28;46.58;;;;;;;4.77;100.00;102371.50;10458148;28;20508;-56
2022/01/16 14:04:03;;;;;;;92.55;45.47;;;;;;;4.71;100.00;102383.66;10458501;28;20128;-57
2022/01/16 14:09:09;;;;;;;90.22;42.08;;;;;;;4.79;100.00;102379.28;10456518;28;20068;-57
2022/01/16 14:14:16;;;;;;;92.40;44.00;;;;;;;4.71;100.00;102397.50;10457967;28;20051;-57
2022/01/16 14:19:23;;;;;;;77.35;40.58;;;;;;;4.69;100.00;102390.59;10458059;28;20512;-57
2022/01/16 14:24:27;;;;;;;75.72;39.22;;;;;;;4.68;100.00;102402.72;10456915;28;20053;-57
2022/01/16 14:29:29;;;;;;;73.85;38.55;;;;;;;4.58;100.00;102403.66;10459501;28;20052;-58
2022/01/16 14:34:33;;;;;;;62.58;34.80;;;;;;;4.60;100.00;102404.50;10457598;28;20059;-58
2022/01/16 14:39:36;;;;;;;67.25;36.58;;;;;;;4.60;100.00;102410.53;10456859;28;20404;-57
2022/01/16 14:44:38;;;;;;;57.15;33.30;;;;;;;4.52;100.00;102422.69;10456756;28;20045;-57
2022/01/16 14:49:43;;;;;;;61.70;32.67;;;;;;;4.54;100.00;102436.53;10439265;28;20052;-57
2022/01/16 14:54:49;;;;;;;54.05;31.02;;;;;;;4.68;100.00;102436.44;10456717;28;20052;-55
2022/01/16 14:59:54;;;;;;;58.92;32.67;;;;;;;4.48;100.00;102431.38;10457818;28;20095;-56
2022/01/16 15:04:57;;;;;;;56.88;31.77;;;;;;;4.58;100.00;102459.00;10457242;28;20057;-57
2022/01/16 15:10:00;;;;;;;61.55;33.65;;;;;;;4.58;100.00;102463.31;10457206;28;20052;-57
2022/01/16 15:15:05;;;;;;;50.13;30.90;;;;;;;4.59;100.00;102455.53;10456114;28;20495;-55
2022/01/16 15:20:18;;;;;;;63.50;38.58;;;;;;;4.51;100.00;102472.88;10456068;28;20057;-58
2022/01/16 15:25:21;;;;;;;58.58;35.28;;;;;;;4.58;100.00;102458.13;10456066;28;20166;-56
2022/01/16 15:30:23;;;;;;;57.90;34.42;;;;;;;4.56;100.00;102468.53;10455707;28;20478;-56
2022/01/16 15:35:25;;;;;;;63.70;37.97;;;;;;;4.56;100.00;102472.84;10457735;28;20053;-56
2022/01/16 15:40:35;;;;;;;72.93;39.55;;;;;;;4.64;100.00;102479.72;10463755;28;20064;-58
2022/01/16 15:45:37;;;;;;;66.30;37.95;;;;;;;4.50;100.00;102489.28;10464729;28;20053;-58
2022/01/16 15:50:40;;;;;;;86.00;46.30;;;;;;;4.41;100.00;102482.44;10462280;28;20087;-54
2022/01/16 15:55:42;;;;;;;80.47;43.97;;;;;;;4.54;100.00;102490.13;10463212;28;20059;-54
2022/01/16 16:00:46;;;;;;;89.35;45.17;;;;;;;4.54;100.00;102495.31;10463268;28;20061;-58
2022/01/16 16:05:49;;;;;;;93.43;47.85;;;;;;;4.52;100.00;102487.53;10462523;28;20049;-56
2022/01/16 16:10:52;;;;;;;95.97;47.72;;;;;;;4.50;100.00;102478.91;10462754;28;20482;-55
2022/01/16 16:15:54;;;;;;;90.07;45.30;;;;;;;4.46;100.00;102483.25;10462431;28;20048;-57
2022/01/16 16:20:56;;;;;;;89.07;44.95;;;;;;;4.54;100.00;102488.44;10462340;28;20114;-53
2022/01/16 16:25:59;;;;;;;114.80;70.72;;;;;;;4.56;100.00;102499.66;10463104;28;20086;-58
2022/01/16 16:31:01;;;;;;;103.50;48.55;;;;;;;4.43;100.00;102498.84;10461787;28;20512;-56
2022/01/16 16:36:04;;;;;;;100.18;49.53;;;;;;;4.45;100.00;102507.50;10461526;28;20401;-57
2022/01/16 16:41:07;;;;;;;84.15;41.63;;;;;;;4.44;100.00;102520.47;10461507;28;20136;-55
2022/01/16 16:46:09;;;;;;;96.03;46.78;;;;;;;4.49;100.00;102548.97;10460252;28;20045;-56
2022/01/16 16:51:12;;;;;;;93.90;45.30;;;;;;;4.56;100.00;102568.84;10461083;28;20053;-56
2022/01/16 16:56:14;;;;;;;91.72;44.45;;;;;;;4.53;100.00;102568.84;10460681;28;20056;-58
2022/01/16 17:01:16;;;;;;;103.88;50.60;;;;;;;4.48;100.00;102574.03;10458994;28;20057;-56
2022/01/16 17:06:19;;;;;;;110.20;50.35;;;;;;;4.43;100.00;102576.66;10460377;28;20057;-56
2022/01/16 17:11:22;;;;;;;121.93;54.42;;;;;;;4.42;100.00;102582.72;10442802;28;20045;-58
2022/01/16 17:16:24;;;;;;;111.65;52.70;;;;;;;4.55;100.00;102598.22;10460456;28;20060;-53
2022/01/16 17:21:26;;;;;;;109.22;52.10;;;;;;;4.57;100.00;102591.31;10459719;28;20056;-57
2022/01/16 17:26:29;;;;;;;104.57;51.05;;;;;;;4.52;100.00;102596.50;10459808;28;20049;-55
2022/01/16 17:31:31;;;;;;;108.97;50.47;;;;;;;4.60;100.00;102601.66;10459401;28;20049;-57
2022/01/16 17:36:34;;;;;;;131.57;56.70;;;;;;;4.56;100.00;102620.72;10459293;28;20057;-58
2022/01/16 17:41:36;;;;;;;115.53;55.30;;;;;;;4.57;100.00;102632.81;10458993;28;20049;-57
2022/01/16 17:46:38;;;;;;;118.93;56.65;;;;;;;4.62;100.00;102631.94;10460091;28;20056;-59
2022/01/16 17:51:41;;;;;;;114.50;53.13;;;;;;;4.55;100.00;102638.00;10457510;28;20052;-57
2022/01/16 17:56:43;;;;;;;124.55;56.53;;;;;;;4.59;100.00;102651.81;10458449;28;20056;-55
2022/01/16 18:01:45;;;;;;;111.05;55.05;;;;;;;4.63;100.00;102654.41;10457141;28;20052;-57
2022/01/16 18:06:48;;;;;;;130.07;59.20;;;;;;;4.65;100.00;102657.00;10457680;28;20044;-56
2022/01/16 18:11:51;;;;;;;134.98;59.83;;;;;;;4.63;100.00;102663.94;10458713;28;20049;-59
2022/01/16 18:16:54;;;;;;;122.55;57.72;;;;;;;4.70;100.00;102670.81;10458129;28;20061;-59
2022/01/16 18:21:56;;;;;;;130.02;58.60;;;;;;;4.74;100.00;102662.19;10457604;28;20049;-58
2022/01/16 18:26:59;;;;;;;120.97;58.03;;;;;;;4.71;100.00;102658.69;10456974;28;20049;-56
2022/01/16 18:32:02;;;;;;;107.13;54.03;;;;;;;4.70;100.00;102673.41;10457862;28;20052;-57
2022/01/16 18:37:05;;;;;;;142.68;64.30;;;;;;;4.73;100.00;102681.19;10457011;28;20049;-56
2022/01/16 18:42:07;;;;;;;129.32;58.50;;;;;;;4.81;100.00;102684.66;10456963;28;20045;-59
2022/01/16 18:47:10;;;;;;;123.50;56.63;;;;;;;4.74;100.00;102684.66;10456436;28;20059;-57
2022/01/16 18:52:15;;;;;;;129.07;60.60;;;;;;;4.74;100.00;102689.84;10456054;28;20056;-53
2022/01/16 18:57:18;;;;;;;116.43;55.58;;;;;;;4.73;100.00;102701.97;10456942;28;20053;-58
2022/01/16 19:02:20;;;;;;;134.05;62.53;;;;;;;4.78;100.00;102720.13;10456428;28;20378;-56
2022/01/16 19:07:22;;;;;;;116.78;55.85;;;;;;;4.87;100.00;102714.91;10456641;28;20128;-54
2022/01/16 19:12:25;;;;;;;128.27;59.72;;;;;;;4.80;100.00;102740.00;10462171;28;20045;-58
2022/01/16 19:17:27;;;;;;;117.60;56.17;;;;;;;4.86;100.00;102731.34;10464122;28;20057;-58
2022/01/16 19:22:31;;;;;;;113.63;55.45;;;;;;;4.99;100.00;102743.44;10464410;28;20528;-56
2022/01/16 19:27:34;;;;;;;117.18;59.13;;;;;;;4.95;100.00;102738.25;10464126;28;20575;-54
2022/01/16 19:32:36;;;;;;;106.20;55.25;;;;;;;5.00;100.00;102739.09;10464220;28;20053;-56
2022/01/16 19:37:40;;;;;;;131.52;63.78;;;;;;;4.90;100.00;102730.47;10463386;28;20049;-58
2022/01/16 19:43:00;;;;;;;128.25;62.20;;;;;;;4.99;100.00;102735.66;10463019;28;20051;-54
2022/01/16 19:48:03;;;;;;;130.45;60.97;;;;;;;4.99;100.00;102738.25;10463119;28;20049;-57
2022/01/16 19:53:05;;;;;;;128.63;60.03;;;;;;;4.96;100.00;102737.34;10463597;28;20056;-57
2022/01/16 19:58:07;;;;;;;143.57;65.20;;;;;;;4.93;100.00;102747.78;10463035;28;20059;-58
2022/01/16 20:03:15;;;;;;;130.45;60.75;;;;;;;4.98;100.00;102748.63;10462212;28;20407;-57
2022/01/16 20:08:19;;;;;;;129.93;64.57;;;;;;;4.96;100.00;102773.69;10463912;28;20041;-59
2022/01/16 20:13:21;;;;;;;125.90;57.22;;;;;;;5.02;100.00;102776.28;10462583;28;20076;-56
2022/01/16 20:18:24;;;;;;;118.38;57.00;;;;;;;5.07;100.00;102776.28;10464231;28;20063;-57
2022/01/16 20:23:26;;;;;;;112.07;57.20;;;;;;;5.10;100.00;102784.94;10461012;28;20052;-57
2022/01/16 20:28:28;;;;;;;113.88;57.42;;;;;;;5.13;100.00;102784.06;10461895;28;20055;-57
2022/01/16 20:33:31;;;;;;;111.70;55.22;;;;;;;5.11;100.00;102796.16;10461706;28;20068;-58
2022/01/16 20:38:33;;;;;;;102.90;55.17;;;;;;;5.14;100.00;102797.03;10461703;28;20053;-58
2022/01/16 20:43:35;;;;;;;117.20;58.45;;;;;;;5.14;100.00;102815.19;10461275;28;20052;-56
2022/01/16 20:48:41;;;;;;;105.97;54.78;;;;;;;5.18;100.00;102814.34;10461042;28;20045;-57
2022/01/16 20:53:44;;;;;;;104.00;51.22;;;;;;;5.29;100.00;102816.91;10461448;28;20071;-57
2022/01/16 20:58:46;;;;;;;110.68;55.78;;;;;;;5.30;100.00;102815.19;10462991;28;20045;-57
2022/01/16 21:03:49;;;;;;;86.50;48.15;;;;;;;5.27;100.00;102820.38;10459545;28;20052;-60
2022/01/16 21:08:51;;;;;;;100.03;50.78;;;;;;;5.31;100.00;102809.09;10460240;28;20481;-58
2022/01/16 21:13:53;;;;;;;84.95;46.35;;;;;;;5.38;100.00;102813.44;10458944;28;20488;-58
2022/01/16 21:18:56;;;;;;;108.88;53.10;;;;;;;5.36;100.00;102808.25;10460254;28;20053;-58
2022/01/16 21:23:58;;;;;;;88.63;46.85;;;;;;;5.38;100.00;102821.22;10459872;28;20056;-58
2022/01/16 21:29:00;;;;;;;101.32;49.00;;;;;;;5.42;100.00;102822.06;10459917;28;20055;-57
2022/01/16 21:34:03;;;;;;;95.57;50.30;;;;;;;5.34;100.00;102825.53;10461407;28;20512;-59
2022/01/16 21:39:05;;;;;;;92.50;50.45;;;;;;;5.40;100.00;102840.25;10459759;28;20056;-58
2022/01/16 21:44:08;;;;;;;91.93;48.13;;;;;;;5.46;100.00;102848.03;10458798;28;20052;-57
2022/01/16 21:49:11;;;;;;;75.22;39.33;;;;;;;5.45;100.00;102848.06;10458988;28;20175;-58
2022/01/16 21:54:13;;;;;;;98.88;49.33;;;;;;;5.43;100.00;102876.63;10459242;28;20045;-57
2022/01/16 21:59:16;;;;;;;87.07;45.10;;;;;;;5.51;100.00;102872.25;10458461;28;20064;-59
2022/01/16 22:04:18;;;;;;;85.10;42.22;;;;;;;5.57;100.00;102881.78;10458081;28;20056;-56
2022/01/16 22:09:21;;;;;;;80.25;41.70;;;;;;;5.55;100.00;102870.53;10457664;28;20053;-59
2022/01/16 22:14:23;;;;;;;78.43;39.90;;;;;;;5.59;100.00;102891.28;10459612;28;20052;-57
2022/01/16 22:19:28;;;;;;;90.38;43.10;;;;;;;5.55;100.00;102891.31;10458051;28;20045;-58
2022/01/16 22:24:30;;;;;;;84.78;41.47;;;;;;;5.54;100.00;102889.56;10457450;28;20041;-59
2022/01/16 22:29:33;;;;;;;77.15;41.13;;;;;;;5.56;100.00;102898.22;10457351;28;20057;-59
2022/01/16 22:34:35;;;;;;;69.53;36.25;;;;;;;5.56;100.00;102899.13;10457240;28;20056;-58
2022/01/16 22:39:41;;;;;;;49.85;28.33;;;;;;;5.65;100.00;102907.72;10457013;28;20053;-58
2022/01/16 22:44:43;;;;;;;55.40;29.60;;;;;;;5.65;100.00;102903.41;10456008;28;20615;-59
2022/01/16 22:49:46;;;;;;;62.70;31.15;;;;;;;5.66;100.00;102918.13;10456646;28;20052;-56
2022/01/16 22:54:48;;;;;;;55.83;30.08;;;;;;;5.69;100.00;102915.50;10457722;28;20075;-56
2022/01/16 22:59:51;;;;;;;63.38;32.25;;;;;;;5.65;100.00;102920.72;10457011;28;20053;-59
2022/01/16 23:04:53;;;;;;;65.90;32.60;;;;;;;5.58;100.00;102931.16;10455230;28;20049;-54
2022/01/16 23:09:56;;;;;;;64.85;30.48;;;;;;;5.56;100.00;102926.81;10456386;28;20060;-59
2022/01/16 23:14:58;;;;;;;55.63;29.45;;;;;;;5.67;100.00;102945.00;10456248;28;20060;-57
2022/01/16 23:20:01;;;;;;;55.95;25.48;;;;;;;5.65;100.00;102952.78;10456033;28;20049;-58